sensor_id;sensor_type;location;lat;lon;timestamp;temperature;humidity
46231;DHT22;31949;51.404;-0.038;2024-03-25T00:00:11;7.60;99.90
46231;DHT22;31949;51.404;-0.038;2024-03-25T00:02:38;7.60;99.90
46231;DHT22;31949;51.404;-0.038;2024-03-25T00:05:06;7.60;99.90
46231;DHT22;31949;51.404;-0.038;2024-03-25T00:07:38;7.60;99.90
46231;DHT22;31949;51.404;-0.038;2024-03-25T00:10:05;7.60;99.90
46231;DHT22;31949;51.404;-0.038;2024-03-25T00:12:35;7.50;99.90
46231;DHT22;31949;51.404;-0.038;2024-03-25T00:15:01;7.50;99.90
46231;DHT22;31949;51.404;-0.038;2024-03-25T00:17:29;7.50;99.90
46231;DHT22;31949;51.404;-0.038;2024-03-25T00:19:55;7.50;99.90
46231;DHT22;31949;51.404;-0.038;2024-03-25T00:22:22;7.50;99.90
46231;DHT22;31949;51.404;-0.038;2024-03-25T00:24:48;7.40;99.90
46231;DHT22;31949;51.404;-0.038;2024-03-25T00:27:15;7.40;99.90
46231;DHT22;31949;51.404;-0.038;2024-03-25T00:29:41;7.30;99.90
46231;DHT22;31949;51.404;-0.038;2024-03-25T00:32:08;7.30;99.90
46231;DHT22;31949;51.404;-0.038;2024-03-25T00:34:34;7.30;99.90
46231;DHT22;31949;51.404;-0.038;2024-03-25T00:37:00;7.30;99.90
46231;DHT22;31949;51.404;-0.038;2024-03-25T00:39:27;7.30;99.90
46231;DHT22;31949;51.404;-0.038;2024-03-25T00:41:55;7.30;99.90
46231;DHT22;31949;51.404;-0.038;2024-03-25T00:44:21;7.30;99.90
46231;DHT22;31949;51.404;-0.038;2024-03-25T00:46:47;7.30;99.90
46231;DHT22;31949;51.404;-0.038;2024-03-25T00:49:14;7.30;99.90
46231;DHT22;31949;51.404;-0.038;2024-03-25T00:51:40;7.30;99.90
46231;DHT22;31949;51.404;-0.038;2024-03-25T00:54:06;7.40;99.90
46231;DHT22;31949;51.404;-0.038;2024-03-25T00:56:33;7.30;99.90
46231;DHT22;31949;51.404;-0.038;2024-03-25T00:58:59;7.30;99.90
46231;DHT22;31949;51.404;-0.038;2024-03-25T01:01:29;7.30;99.90
46231;DHT22;31949;51.404;-0.038;2024-03-25T01:03:55;7.30;99.90
46231;DHT22;31949;51.404;-0.038;2024-03-25T01:06:22;7.30;99.90
46231;DHT22;31949;51.404;-0.038;2024-03-25T01:08:49;7.30;99.90
46231;DHT22;31949;51.404;-0.038;2024-03-25T01:11:15;7.30;99.90
46231;DHT22;31949;51.404;-0.038;2024-03-25T01:13:41;7.30;99.90
46231;DHT22;31949;51.404;-0.038;2024-03-25T01:16:08;7.30;99.90
46231;DHT22;31949;51.404;-0.038;2024-03-25T01:18:35;7.40;99.90
46231;DHT22;31949;51.404;-0.038;2024-03-25T01:21:01;7.40;99.90
46231;DHT22;31949;51.404;-0.038;2024-03-25T01:23:27;7.30;99.90
46231;DHT22;31949;51.404;-0.038;2024-03-25T01:25:54;7.40;99.90
46231;DHT22;31949;51.404;-0.038;2024-03-25T01:28:20;7.40;99.90
46231;DHT22;31949;51.404;-0.038;2024-03-25T01:30:46;7.40;99.90
46231;DHT22;31949;51.404;-0.038;2024-03-25T01:33:13;7.40;99.90
46231;DHT22;31949;51.404;-0.038;2024-03-25T01:35:39;7.40;99.90
46231;DHT22;31949;51.404;-0.038;2024-03-25T01:38:06;7.30;99.90
46231;DHT22;31949;51.404;-0.038;2024-03-25T01:40:32;7.30;99.90
46231;DHT22;31949;51.404;-0.038;2024-03-25T01:43:02;7.30;99.90
46231;DHT22;31949;51.404;-0.038;2024-03-25T01:45:31;7.30;99.90
46231;DHT22;31949;51.404;-0.038;2024-03-25T01:47:59;7.20;99.90
46231;DHT22;31949;51.404;-0.038;2024-03-25T01:50:26;7.20;99.90
46231;DHT22;31949;51.404;-0.038;2024-03-25T01:52:53;7.20;99.90
46231;DHT22;31949;51.404;-0.038;2024-03-25T01:55:21;7.10;99.90
46231;DHT22;31949;51.404;-0.038;2024-03-25T01:57:49;7.10;99.90
46231;DHT22;31949;51.404;-0.038;2024-03-25T02:00:16;7.10;99.90
46231;DHT22;31949;51.404;-0.038;2024-03-25T02:02:45;7.10;99.90
46231;DHT22;31949;51.404;-0.038;2024-03-25T02:05:14;7.10;99.90
46231;DHT22;31949;51.404;-0.038;2024-03-25T02:07:41;7.10;99.90
46231;DHT22;31949;51.404;-0.038;2024-03-25T02:10:08;7.00;99.90
46231;DHT22;31949;51.404;-0.038;2024-03-25T02:12:41;7.00;99.90
46231;DHT22;31949;51.404;-0.038;2024-03-25T02:15:09;7.00;99.90
46231;DHT22;31949;51.404;-0.038;2024-03-25T02:17:35;7.00;99.90
46231;DHT22;31949;51.404;-0.038;2024-03-25T02:20:03;6.90;99.90
46231;DHT22;31949;51.404;-0.038;2024-03-25T02:22:32;6.90;99.90
46231;DHT22;31949;51.404;-0.038;2024-03-25T02:24:59;6.90;99.90
46231;DHT22;31949;51.404;-0.038;2024-03-25T02:27:26;6.90;99.90
46231;DHT22;31949;51.404;-0.038;2024-03-25T02:30:08;6.80;99.90
46231;DHT22;31949;51.404;-0.038;2024-03-25T02:32:35;6.80;99.90
46231;DHT22;31949;51.404;-0.038;2024-03-25T02:35:10;6.80;99.90
46231;DHT22;31949;51.404;-0.038;2024-03-25T02:37:39;6.80;99.90
46231;DHT22;31949;51.404;-0.038;2024-03-25T02:40:06;6.80;99.90
46231;DHT22;31949;51.404;-0.038;2024-03-25T02:42:33;6.80;99.90
46231;DHT22;31949;51.404;-0.038;2024-03-25T02:44:59;6.70;99.90
46231;DHT22;31949;51.404;-0.038;2024-03-25T02:47:26;6.70;99.90
46231;DHT22;31949;51.404;-0.038;2024-03-25T02:49:52;6.70;99.90
46231;DHT22;31949;51.404;-0.038;2024-03-25T02:52:19;6.70;99.90
46231;DHT22;31949;51.404;-0.038;2024-03-25T02:54:45;6.70;99.90
46231;DHT22;31949;51.404;-0.038;2024-03-25T02:57:11;6.60;99.90
46231;DHT22;31949;51.404;-0.038;2024-03-25T02:59:38;6.60;99.90
46231;DHT22;31949;51.404;-0.038;2024-03-25T03:02:04;6.60;99.90
46231;DHT22;31949;51.404;-0.038;2024-03-25T03:04:30;6.60;99.90
46231;DHT22;31949;51.404;-0.038;2024-03-25T03:06:57;6.60;99.90
46231;DHT22;31949;51.404;-0.038;2024-03-25T03:09:23;6.60;99.90
46231;DHT22;31949;51.404;-0.038;2024-03-25T03:11:49;6.60;99.90
46231;DHT22;31949;51.404;-0.038;2024-03-25T03:14:16;6.60;99.90
46231;DHT22;31949;51.404;-0.038;2024-03-25T03:16:42;6.60;99.90
46231;DHT22;31949;51.404;-0.038;2024-03-25T03:19:09;6.70;99.90
46231;DHT22;31949;51.404;-0.038;2024-03-25T03:21:35;6.70;99.90
46231;DHT22;31949;51.404;-0.038;2024-03-25T03:24:03;6.70;99.90
46231;DHT22;31949;51.404;-0.038;2024-03-25T03:26:29;6.60;99.90
46231;DHT22;31949;51.404;-0.038;2024-03-25T03:28:58;6.70;99.90
46231;DHT22;31949;51.404;-0.038;2024-03-25T03:31:26;6.70;99.90
46231;DHT22;31949;51.404;-0.038;2024-03-25T03:33:52;6.70;99.90
46231;DHT22;31949;51.404;-0.038;2024-03-25T03:36:21;6.70;99.90
46231;DHT22;31949;51.404;-0.038;2024-03-25T03:38:49;6.70;99.90
46231;DHT22;31949;51.404;-0.038;2024-03-25T03:41:16;6.70;99.90
46231;DHT22;31949;51.404;-0.038;2024-03-25T03:43:42;6.70;99.90
46231;DHT22;31949;51.404;-0.038;2024-03-25T03:46:08;6.80;99.90
46231;DHT22;31949;51.404;-0.038;2024-03-25T03:48:34;6.80;99.90
46231;DHT22;31949;51.404;-0.038;2024-03-25T03:51:01;6.80;99.90
46231;DHT22;31949;51.404;-0.038;2024-03-25T03:53:27;6.80;99.90
46231;DHT22;31949;51.404;-0.038;2024-03-25T03:58:21;6.80;99.90
46231;DHT22;31949;51.404;-0.038;2024-03-25T04:00:47;6.90;99.90
46231;DHT22;31949;51.404;-0.038;2024-03-25T04:03:14;6.90;99.90
46231;DHT22;31949;51.404;-0.038;2024-03-25T04:05:40;6.90;99.90
46231;DHT22;31949;51.404;-0.038;2024-03-25T04:08:06;7.00;99.90
46231;DHT22;31949;51.404;-0.038;2024-03-25T04:10:34;7.00;99.90
46231;DHT22;31949;51.404;-0.038;2024-03-25T04:13:00;7.00;99.90
46231;DHT22;31949;51.404;-0.038;2024-03-25T04:15:26;7.10;99.90
46231;DHT22;31949;51.404;-0.038;2024-03-25T04:17:52;7.00;99.90
46231;DHT22;31949;51.404;-0.038;2024-03-25T04:20:19;7.10;99.90
46231;DHT22;31949;51.404;-0.038;2024-03-25T04:22:46;7.10;99.90
46231;DHT22;31949;51.404;-0.038;2024-03-25T04:25:13;7.10;99.90
46231;DHT22;31949;51.404;-0.038;2024-03-25T04:27:43;7.20;99.90
46231;DHT22;31949;51.404;-0.038;2024-03-25T04:30:11;7.20;99.90
46231;DHT22;31949;51.404;-0.038;2024-03-25T04:32:38;7.10;99.90
46231;DHT22;31949;51.404;-0.038;2024-03-25T04:35:05;7.20;99.90
46231;DHT22;31949;51.404;-0.038;2024-03-25T04:37:32;7.20;99.90
46231;DHT22;31949;51.404;-0.038;2024-03-25T04:39:59;7.20;99.90
46231;DHT22;31949;51.404;-0.038;2024-03-25T04:42:25;7.20;99.90
46231;DHT22;31949;51.404;-0.038;2024-03-25T04:44:51;7.20;99.90
46231;DHT22;31949;51.404;-0.038;2024-03-25T04:47:18;7.30;99.90
46231;DHT22;31949;51.404;-0.038;2024-03-25T04:49:45;7.30;99.90
46231;DHT22;31949;51.404;-0.038;2024-03-25T04:52:15;7.30;99.90
46231;DHT22;31949;51.404;-0.038;2024-03-25T04:54:45;7.30;99.90
46231;DHT22;31949;51.404;-0.038;2024-03-25T04:57:11;7.30;99.90
46231;DHT22;31949;51.404;-0.038;2024-03-25T04:59:37;7.30;99.90
46231;DHT22;31949;51.404;-0.038;2024-03-25T05:02:04;7.30;99.90
46231;DHT22;31949;51.404;-0.038;2024-03-25T05:04:30;7.30;99.90
46231;DHT22;31949;51.404;-0.038;2024-03-25T05:06:57;7.30;99.90
46231;DHT22;31949;51.404;-0.038;2024-03-25T05:09:23;7.30;99.90
46231;DHT22;31949;51.404;-0.038;2024-03-25T05:11:49;7.30;99.90
46231;DHT22;31949;51.404;-0.038;2024-03-25T05:14:15;7.40;99.90
46231;DHT22;31949;51.404;-0.038;2024-03-25T05:16:41;7.40;99.90
46231;DHT22;31949;51.404;-0.038;2024-03-25T05:19:08;7.40;99.90
46231;DHT22;31949;51.404;-0.038;2024-03-25T05:21:34;7.40;99.90
46231;DHT22;31949;51.404;-0.038;2024-03-25T05:24:01;7.40;99.90
46231;DHT22;31949;51.404;-0.038;2024-03-25T05:26:27;7.40;99.90
46231;DHT22;31949;51.404;-0.038;2024-03-25T05:28:54;7.50;99.90
46231;DHT22;31949;51.404;-0.038;2024-03-25T05:31:20;7.50;99.90
46231;DHT22;31949;51.404;-0.038;2024-03-25T05:33:46;7.50;99.90
46231;DHT22;31949;51.404;-0.038;2024-03-25T05:36:13;7.40;99.90
46231;DHT22;31949;51.404;-0.038;2024-03-25T05:38:40;7.50;99.90
46231;DHT22;31949;51.404;-0.038;2024-03-25T05:41:08;7.50;99.90
46231;DHT22;31949;51.404;-0.038;2024-03-25T05:43:34;7.50;99.90
46231;DHT22;31949;51.404;-0.038;2024-03-25T05:46:00;7.50;99.90
46231;DHT22;31949;51.404;-0.038;2024-03-25T05:48:28;7.50;99.90
46231;DHT22;31949;51.404;-0.038;2024-03-25T05:51:03;7.50;99.90
46231;DHT22;31949;51.404;-0.038;2024-03-25T05:53:35;7.50;99.90
46231;DHT22;31949;51.404;-0.038;2024-03-25T05:56:04;7.50;99.90
46231;DHT22;31949;51.404;-0.038;2024-03-25T05:58:30;7.60;99.90
46231;DHT22;31949;51.404;-0.038;2024-03-25T06:00:57;7.60;99.90
46231;DHT22;31949;51.404;-0.038;2024-03-25T06:03:23;7.60;99.90
46231;DHT22;31949;51.404;-0.038;2024-03-25T06:05:49;7.60;99.90
46231;DHT22;31949;51.404;-0.038;2024-03-25T06:08:15;7.60;99.90
46231;DHT22;31949;51.404;-0.038;2024-03-25T06:11:01;7.60;99.90
46231;DHT22;31949;51.404;-0.038;2024-03-25T06:13:27;7.60;99.90
46231;DHT22;31949;51.404;-0.038;2024-03-25T06:15:53;7.60;99.90
46231;DHT22;31949;51.404;-0.038;2024-03-25T06:18:20;7.70;99.90
46231;DHT22;31949;51.404;-0.038;2024-03-25T06:20:46;7.70;99.90
46231;DHT22;31949;51.404;-0.038;2024-03-25T06:23:23;7.70;99.90
46231;DHT22;31949;51.404;-0.038;2024-03-25T06:25:50;7.70;99.90
46231;DHT22;31949;51.404;-0.038;2024-03-25T06:28:17;7.80;99.90
46231;DHT22;31949;51.404;-0.038;2024-03-25T06:30:44;7.80;99.90
46231;DHT22;31949;51.404;-0.038;2024-03-25T06:33:29;7.80;99.90
46231;DHT22;31949;51.404;-0.038;2024-03-25T06:36:13;7.90;99.90
46231;DHT22;31949;51.404;-0.038;2024-03-25T06:38:40;7.90;99.90
46231;DHT22;31949;51.404;-0.038;2024-03-25T06:41:06;7.90;99.90
46231;DHT22;31949;51.404;-0.038;2024-03-25T06:43:32;8.00;99.90
46231;DHT22;31949;51.404;-0.038;2024-03-25T06:45:59;8.00;99.90
46231;DHT22;31949;51.404;-0.038;2024-03-25T06:48:25;8.10;99.90
46231;DHT22;31949;51.404;-0.038;2024-03-25T06:50:55;8.20;99.90
46231;DHT22;31949;51.404;-0.038;2024-03-25T06:53:22;8.20;99.90
46231;DHT22;31949;51.404;-0.038;2024-03-25T06:55:55;8.20;99.90
46231;DHT22;31949;51.404;-0.038;2024-03-25T06:58:25;8.30;99.90
46231;DHT22;31949;51.404;-0.038;2024-03-25T07:00:52;8.40;99.90
46231;DHT22;31949;51.404;-0.038;2024-03-25T07:03:19;8.40;99.90
46231;DHT22;31949;51.404;-0.038;2024-03-25T07:05:46;8.50;99.90
46231;DHT22;31949;51.404;-0.038;2024-03-25T07:08:13;8.50;99.90
46231;DHT22;31949;51.404;-0.038;2024-03-25T07:10:43;8.60;99.90
46231;DHT22;31949;51.404;-0.038;2024-03-25T07:13:10;8.60;99.90
46231;DHT22;31949;51.404;-0.038;2024-03-25T07:15:37;8.70;99.90
46231;DHT22;31949;51.404;-0.038;2024-03-25T07:18:03;8.70;99.90
46231;DHT22;31949;51.404;-0.038;2024-03-25T07:20:30;8.80;99.90
46231;DHT22;31949;51.404;-0.038;2024-03-25T07:22:57;8.80;99.90
46231;DHT22;31949;51.404;-0.038;2024-03-25T07:25:24;8.90;99.90
46231;DHT22;31949;51.404;-0.038;2024-03-25T07:27:51;9.00;99.90
46231;DHT22;31949;51.404;-0.038;2024-03-25T07:30:20;9.00;99.90
46231;DHT22;31949;51.404;-0.038;2024-03-25T07:32:57;9.10;99.90
46231;DHT22;31949;51.404;-0.038;2024-03-25T07:35:25;9.30;99.90
46231;DHT22;31949;51.404;-0.038;2024-03-25T07:37:52;9.30;99.90
46231;DHT22;31949;51.404;-0.038;2024-03-25T07:40:19;9.30;99.90
46231;DHT22;31949;51.404;-0.038;2024-03-25T07:42:45;9.30;99.90
46231;DHT22;31949;51.404;-0.038;2024-03-25T07:45:12;9.30;99.90
46231;DHT22;31949;51.404;-0.038;2024-03-25T07:47:38;9.30;99.90
46231;DHT22;31949;51.404;-0.038;2024-03-25T07:50:05;9.40;99.90
46231;DHT22;31949;51.404;-0.038;2024-03-25T07:52:34;9.40;99.90
46231;DHT22;31949;51.404;-0.038;2024-03-25T07:55:09;9.50;99.90
46231;DHT22;31949;51.404;-0.038;2024-03-25T07:57:36;9.60;99.90
46231;DHT22;31949;51.404;-0.038;2024-03-25T08:00:03;9.60;99.90
46231;DHT22;31949;51.404;-0.038;2024-03-25T08:02:38;9.70;99.90
46231;DHT22;31949;51.404;-0.038;2024-03-25T08:05:04;9.70;99.90
46231;DHT22;31949;51.404;-0.038;2024-03-25T08:07:32;9.70;99.90
46231;DHT22;31949;51.404;-0.038;2024-03-25T08:09:58;9.70;99.90
46231;DHT22;31949;51.404;-0.038;2024-03-25T08:12:24;9.70;99.90
46231;DHT22;31949;51.404;-0.038;2024-03-25T08:14:50;9.80;99.90
46231;DHT22;31949;51.404;-0.038;2024-03-25T08:17:16;9.90;99.90
46231;DHT22;31949;51.404;-0.038;2024-03-25T08:19:42;10.00;99.90
46231;DHT22;31949;51.404;-0.038;2024-03-25T08:22:08;9.90;99.90
46231;DHT22;31949;51.404;-0.038;2024-03-25T08:24:35;10.00;99.90
46231;DHT22;31949;51.404;-0.038;2024-03-25T08:27:01;10.00;99.90
46231;DHT22;31949;51.404;-0.038;2024-03-25T08:29:28;10.10;99.90
46231;DHT22;31949;51.404;-0.038;2024-03-25T08:31:54;10.10;99.90
46231;DHT22;31949;51.404;-0.038;2024-03-25T08:34:21;10.10;99.90
46231;DHT22;31949;51.404;-0.038;2024-03-25T08:36:47;10.10;99.90
46231;DHT22;31949;51.404;-0.038;2024-03-25T08:39:13;10.20;99.90
46231;DHT22;31949;51.404;-0.038;2024-03-25T08:41:39;10.30;99.90
46231;DHT22;31949;51.404;-0.038;2024-03-25T08:44:06;10.30;99.90
46231;DHT22;31949;51.404;-0.038;2024-03-25T08:46:32;10.40;99.90
46231;DHT22;31949;51.404;-0.038;2024-03-25T08:48:58;10.40;99.90
46231;DHT22;31949;51.404;-0.038;2024-03-25T08:51:24;10.50;99.90
46231;DHT22;31949;51.404;-0.038;2024-03-25T08:53:50;10.60;99.90
46231;DHT22;31949;51.404;-0.038;2024-03-25T08:56:17;10.70;99.90
46231;DHT22;31949;51.404;-0.038;2024-03-25T08:58:43;10.80;99.90
46231;DHT22;31949;51.404;-0.038;2024-03-25T09:01:10;10.80;99.90
46231;DHT22;31949;51.404;-0.038;2024-03-25T09:03:40;10.80;99.90
46231;DHT22;31949;51.404;-0.038;2024-03-25T09:06:07;10.90;99.90
46231;DHT22;31949;51.404;-0.038;2024-03-25T09:08:33;10.90;99.90
46231;DHT22;31949;51.404;-0.038;2024-03-25T09:11:20;10.90;99.90
46231;DHT22;31949;51.404;-0.038;2024-03-25T09:13:46;11.00;99.90
46231;DHT22;31949;51.404;-0.038;2024-03-25T09:16:12;11.10;99.90
46231;DHT22;31949;51.404;-0.038;2024-03-25T09:18:39;11.10;99.90
46231;DHT22;31949;51.404;-0.038;2024-03-25T09:21:05;11.10;99.90
46231;DHT22;31949;51.404;-0.038;2024-03-25T09:23:32;11.10;99.90
46231;DHT22;31949;51.404;-0.038;2024-03-25T09:25:58;11.00;99.90
46231;DHT22;31949;51.404;-0.038;2024-03-25T09:28:25;11.00;99.90
46231;DHT22;31949;51.404;-0.038;2024-03-25T09:30:51;11.00;99.90
46231;DHT22;31949;51.404;-0.038;2024-03-25T09:33:17;11.00;99.90
46231;DHT22;31949;51.404;-0.038;2024-03-25T09:35:43;11.10;99.90
46231;DHT22;31949;51.404;-0.038;2024-03-25T09:38:10;11.00;99.90
46231;DHT22;31949;51.404;-0.038;2024-03-25T09:40:39;11.10;99.90
46231;DHT22;31949;51.404;-0.038;2024-03-25T09:43:14;11.10;99.90
46231;DHT22;31949;51.404;-0.038;2024-03-25T09:45:44;11.20;99.90
46231;DHT22;31949;51.404;-0.038;2024-03-25T09:48:16;11.20;99.90
46231;DHT22;31949;51.404;-0.038;2024-03-25T09:50:43;11.10;99.90
46231;DHT22;31949;51.404;-0.038;2024-03-25T09:53:10;11.10;99.90
46231;DHT22;31949;51.404;-0.038;2024-03-25T09:55:37;11.20;99.90
46231;DHT22;31949;51.404;-0.038;2024-03-25T09:58:04;11.30;99.90
46231;DHT22;31949;51.404;-0.038;2024-03-25T10:00:31;11.20;99.90
46231;DHT22;31949;51.404;-0.038;2024-03-25T10:02:57;11.20;99.90
46231;DHT22;31949;51.404;-0.038;2024-03-25T10:05:23;11.10;99.90
46231;DHT22;31949;51.404;-0.038;2024-03-25T10:07:49;11.10;99.90
46231;DHT22;31949;51.404;-0.038;2024-03-25T10:10:19;11.20;99.90
46231;DHT22;31949;51.404;-0.038;2024-03-25T10:12:46;11.20;99.90
46231;DHT22;31949;51.404;-0.038;2024-03-25T10:15:18;11.20;99.90
46231;DHT22;31949;51.404;-0.038;2024-03-25T10:17:44;11.40;99.90
46231;DHT22;31949;51.404;-0.038;2024-03-25T10:20:14;11.40;99.90
46231;DHT22;31949;51.404;-0.038;2024-03-25T10:22:42;11.40;99.90
46231;DHT22;31949;51.404;-0.038;2024-03-25T10:25:28;11.40;99.90
46231;DHT22;31949;51.404;-0.038;2024-03-25T10:28:01;11.40;99.90
46231;DHT22;31949;51.404;-0.038;2024-03-25T10:30:28;11.40;99.90
46231;DHT22;31949;51.404;-0.038;2024-03-25T10:33:04;11.40;99.90
46231;DHT22;31949;51.404;-0.038;2024-03-25T10:35:34;11.40;99.90
46231;DHT22;31949;51.404;-0.038;2024-03-25T10:38:02;11.30;99.90
46231;DHT22;31949;51.404;-0.038;2024-03-25T10:40:33;11.30;99.90
46231;DHT22;31949;51.404;-0.038;2024-03-25T10:45:30;11.40;99.90
46231;DHT22;31949;51.404;-0.038;2024-03-25T10:48:02;11.40;99.90
46231;DHT22;31949;51.404;-0.038;2024-03-25T10:50:29;11.50;99.90
46231;DHT22;31949;51.404;-0.038;2024-03-25T10:52:57;11.50;99.90
46231;DHT22;31949;51.404;-0.038;2024-03-25T10:55:25;11.50;99.90
46231;DHT22;31949;51.404;-0.038;2024-03-25T11:04:56;11.50;99.90
46231;DHT22;31949;51.404;-0.038;2024-03-25T11:07:30;11.30;99.90
46231;DHT22;31949;51.404;-0.038;2024-03-25T11:10:05;11.30;99.90
46231;DHT22;31949;51.404;-0.038;2024-03-25T11:12:41;11.40;99.90
46231;DHT22;31949;51.404;-0.038;2024-03-25T11:15:08;11.50;99.90
46231;DHT22;31949;51.404;-0.038;2024-03-25T11:17:36;11.50;99.90
46231;DHT22;31949;51.404;-0.038;2024-03-25T11:20:10;11.60;99.90
46231;DHT22;31949;51.404;-0.038;2024-03-25T11:22:52;11.60;99.90
46231;DHT22;31949;51.404;-0.038;2024-03-25T11:25:21;11.60;99.90
46231;DHT22;31949;51.404;-0.038;2024-03-25T11:27:47;11.70;99.90
46231;DHT22;31949;51.404;-0.038;2024-03-25T11:30:14;11.80;99.90
46231;DHT22;31949;51.404;-0.038;2024-03-25T11:32:46;11.80;99.90
46231;DHT22;31949;51.404;-0.038;2024-03-25T11:35:15;11.80;99.90
46231;DHT22;31949;51.404;-0.038;2024-03-25T11:37:42;11.90;99.90
46231;DHT22;31949;51.404;-0.038;2024-03-25T11:40:10;11.90;99.90
46231;DHT22;31949;51.404;-0.038;2024-03-25T11:42:39;11.90;99.90
46231;DHT22;31949;51.404;-0.038;2024-03-25T11:45:07;11.90;99.90
46231;DHT22;31949;51.404;-0.038;2024-03-25T11:47:33;12.00;99.90
46231;DHT22;31949;51.404;-0.038;2024-03-25T11:49:59;12.00;99.90
46231;DHT22;31949;51.404;-0.038;2024-03-25T11:52:32;12.00;99.90
46231;DHT22;31949;51.404;-0.038;2024-03-25T11:54:58;12.10;99.90
46231;DHT22;31949;51.404;-0.038;2024-03-25T11:57:24;12.20;99.90
46231;DHT22;31949;51.404;-0.038;2024-03-25T11:59:51;12.30;99.90
46231;DHT22;31949;51.404;-0.038;2024-03-25T12:02:17;12.50;99.90
46231;DHT22;31949;51.404;-0.038;2024-03-25T12:04:44;12.70;99.90
46231;DHT22;31949;51.404;-0.038;2024-03-25T12:07:15;12.90;99.90
46231;DHT22;31949;51.404;-0.038;2024-03-25T12:09:41;13.10;99.90
46231;DHT22;31949;51.404;-0.038;2024-03-25T12:12:27;13.20;99.90
46231;DHT22;31949;51.404;-0.038;2024-03-25T12:14:54;13.20;99.90
46231;DHT22;31949;51.404;-0.038;2024-03-25T12:17:21;13.30;99.90
46231;DHT22;31949;51.404;-0.038;2024-03-25T12:20:08;13.40;99.90
46231;DHT22;31949;51.404;-0.038;2024-03-25T12:22:35;13.40;99.90
46231;DHT22;31949;51.404;-0.038;2024-03-25T12:25:03;13.30;99.90
46231;DHT22;31949;51.404;-0.038;2024-03-25T12:27:32;13.30;99.90
46231;DHT22;31949;51.404;-0.038;2024-03-25T12:30:09;13.20;99.90
46231;DHT22;31949;51.404;-0.038;2024-03-25T12:32:43;13.30;99.90
46231;DHT22;31949;51.404;-0.038;2024-03-25T12:37:38;13.20;99.90
46231;DHT22;31949;51.404;-0.038;2024-03-25T12:40:06;13.20;99.90
46231;DHT22;31949;51.404;-0.038;2024-03-25T12:42:34;13.20;99.90
46231;DHT22;31949;51.404;-0.038;2024-03-25T12:45:01;13.20;99.90
46231;DHT22;31949;51.404;-0.038;2024-03-25T12:47:27;13.40;99.90
46231;DHT22;31949;51.404;-0.038;2024-03-25T12:49:53;13.40;99.90
46231;DHT22;31949;51.404;-0.038;2024-03-25T12:52:19;13.50;99.90
46231;DHT22;31949;51.404;-0.038;2024-03-25T12:54:45;13.60;99.90
46231;DHT22;31949;51.404;-0.038;2024-03-25T12:57:11;13.60;99.90
46231;DHT22;31949;51.404;-0.038;2024-03-25T12:59:38;13.70;99.90
46231;DHT22;31949;51.404;-0.038;2024-03-25T13:02:04;13.70;99.90
46231;DHT22;31949;51.404;-0.038;2024-03-25T13:04:30;13.80;99.90
46231;DHT22;31949;51.404;-0.038;2024-03-25T13:06:56;13.90;99.90
46231;DHT22;31949;51.404;-0.038;2024-03-25T13:09:29;14.00;99.90
46231;DHT22;31949;51.404;-0.038;2024-03-25T13:11:59;14.00;99.90
46231;DHT22;31949;51.404;-0.038;2024-03-25T13:14:25;13.80;99.90
46231;DHT22;31949;51.404;-0.038;2024-03-25T13:16:52;13.70;99.90
46231;DHT22;31949;51.404;-0.038;2024-03-25T13:19:18;13.60;99.90
46231;DHT22;31949;51.404;-0.038;2024-03-25T13:21:44;13.70;99.90
46231;DHT22;31949;51.404;-0.038;2024-03-25T13:24:10;13.60;99.90
46231;DHT22;31949;51.404;-0.038;2024-03-25T13:26:36;13.40;99.90
46231;DHT22;31949;51.404;-0.038;2024-03-25T13:29:03;13.40;99.90
46231;DHT22;31949;51.404;-0.038;2024-03-25T13:31:29;13.40;99.90
46231;DHT22;31949;51.404;-0.038;2024-03-25T13:33:55;13.40;99.90
46231;DHT22;31949;51.404;-0.038;2024-03-25T13:36:21;13.40;99.90
46231;DHT22;31949;51.404;-0.038;2024-03-25T13:38:47;13.30;99.90
46231;DHT22;31949;51.404;-0.038;2024-03-25T13:41:17;13.20;99.90
46231;DHT22;31949;51.404;-0.038;2024-03-25T13:43:47;13.20;99.90
46231;DHT22;31949;51.404;-0.038;2024-03-25T13:46:14;13.30;99.90
46231;DHT22;31949;51.404;-0.038;2024-03-25T13:48:40;13.40;99.90
46231;DHT22;31949;51.404;-0.038;2024-03-25T13:51:06;13.50;99.90
46231;DHT22;31949;51.404;-0.038;2024-03-25T13:53:33;13.50;99.90
46231;DHT22;31949;51.404;-0.038;2024-03-25T13:55:59;13.60;99.90
46231;DHT22;31949;51.404;-0.038;2024-03-25T13:58:26;13.60;99.90
46231;DHT22;31949;51.404;-0.038;2024-03-25T14:00:52;13.50;99.90
46231;DHT22;31949;51.404;-0.038;2024-03-25T14:03:20;13.60;99.90
46231;DHT22;31949;51.404;-0.038;2024-03-25T14:05:46;13.60;99.90
46231;DHT22;31949;51.404;-0.038;2024-03-25T14:08:13;13.50;99.90
46231;DHT22;31949;51.404;-0.038;2024-03-25T14:10:39;13.70;99.90
46231;DHT22;31949;51.404;-0.038;2024-03-25T14:13:05;13.50;99.90
46231;DHT22;31949;51.404;-0.038;2024-03-25T14:15:32;13.60;99.90
46231;DHT22;31949;51.404;-0.038;2024-03-25T14:18:01;13.50;99.90
46231;DHT22;31949;51.404;-0.038;2024-03-25T14:20:27;13.70;99.90
46231;DHT22;31949;51.404;-0.038;2024-03-25T14:22:53;13.70;99.90
46231;DHT22;31949;51.404;-0.038;2024-03-25T14:25:19;13.70;99.90
46231;DHT22;31949;51.404;-0.038;2024-03-25T14:27:45;13.60;99.90
46231;DHT22;31949;51.404;-0.038;2024-03-25T14:30:12;13.70;99.90
46231;DHT22;31949;51.404;-0.038;2024-03-25T14:32:40;13.70;99.90
46231;DHT22;31949;51.404;-0.038;2024-03-25T14:35:07;13.70;99.90
46231;DHT22;31949;51.404;-0.038;2024-03-25T14:37:33;13.70;99.90
46231;DHT22;31949;51.404;-0.038;2024-03-25T14:39:59;13.70;99.90
46231;DHT22;31949;51.404;-0.038;2024-03-25T14:42:25;13.70;99.90
46231;DHT22;31949;51.404;-0.038;2024-03-25T14:44:51;13.80;99.90
46231;DHT22;31949;51.404;-0.038;2024-03-25T14:47:18;13.80;99.90
46231;DHT22;31949;51.404;-0.038;2024-03-25T14:49:44;13.90;99.90
46231;DHT22;31949;51.404;-0.038;2024-03-25T14:52:10;13.90;99.90
46231;DHT22;31949;51.404;-0.038;2024-03-25T14:54:37;13.90;99.90
46231;DHT22;31949;51.404;-0.038;2024-03-25T14:57:04;13.80;99.90
46231;DHT22;31949;51.404;-0.038;2024-03-25T14:59:30;13.80;99.90
46231;DHT22;31949;51.404;-0.038;2024-03-25T15:02:00;13.70;99.90
46231;DHT22;31949;51.404;-0.038;2024-03-25T15:04:27;13.60;99.90
46231;DHT22;31949;51.404;-0.038;2024-03-25T15:06:53;13.70;99.90
46231;DHT22;31949;51.404;-0.038;2024-03-25T15:09:19;13.70;99.90
46231;DHT22;31949;51.404;-0.038;2024-03-25T15:11:46;13.80;99.90
46231;DHT22;31949;51.404;-0.038;2024-03-25T15:14:12;13.90;99.90
46231;DHT22;31949;51.404;-0.038;2024-03-25T15:16:38;13.90;99.90
46231;DHT22;31949;51.404;-0.038;2024-03-25T15:19:04;13.80;99.90
46231;DHT22;31949;51.404;-0.038;2024-03-25T15:21:30;13.70;99.90
46231;DHT22;31949;51.404;-0.038;2024-03-25T15:23:57;13.70;99.90
46231;DHT22;31949;51.404;-0.038;2024-03-25T15:26:23;13.60;99.90
46231;DHT22;31949;51.404;-0.038;2024-03-25T15:28:49;13.60;99.90
46231;DHT22;31949;51.404;-0.038;2024-03-25T15:31:16;13.70;99.90
46231;DHT22;31949;51.404;-0.038;2024-03-25T15:33:42;13.70;99.90
46231;DHT22;31949;51.404;-0.038;2024-03-25T15:36:08;13.50;99.90
46231;DHT22;31949;51.404;-0.038;2024-03-25T15:38:34;13.50;99.90
46231;DHT22;31949;51.404;-0.038;2024-03-25T15:41:01;13.50;99.90